createdAt,value
2023-05-13T00:01:24.530Z,98738.47
2023-05-13T00:03:52.421Z,98739.97
2023-05-13T00:06:20.211Z,98744.09
2023-05-13T00:08:47.988Z,98744.69
2023-05-13T00:11:17.103Z,98734.81
2023-05-13T00:13:44.781Z,98741.19
2023-05-13T00:16:12.550Z,98742.22
2023-05-13T00:18:40.333Z,98739.22
2023-05-13T00:21:08.575Z,98735.56
2023-05-13T00:23:36.268Z,98735.31
2023-05-13T00:26:04.090Z,98739.00
2023-05-13T00:28:33.149Z,98734.31
2023-05-13T00:31:01.323Z,98738.44
2023-05-13T00:33:29.090Z,98739.97
2023-05-13T00:35:56.776Z,98739.97
2023-05-13T00:38:24.503Z,98748.00
2023-05-13T00:40:52.362Z,98743.38
2023-05-13T00:43:20.137Z,98738.38
2023-05-13T00:45:49.249Z,98744.06
2023-05-13T00:48:17.219Z,98752.00
2023-05-13T00:50:45.073Z,98749.03
2023-05-13T00:53:13.673Z,98747.50
2023-05-13T00:55:43.001Z,98745.50
2023-05-13T00:58:11.405Z,98743.25
2023-05-13T01:00:45.194Z,98739.13
2023-05-13T01:03:20.919Z,98740.28
2023-05-13T01:06:02.185Z,98746.91
2023-05-13T01:08:36.094Z,98746.13
2023-05-13T01:11:07.643Z,98740.50
2023-05-13T01:13:43.300Z,98746.53
2023-05-13T01:16:16.881Z,98750.19
2023-05-13T01:18:50.444Z,98747.28
2023-05-13T01:21:25.678Z,98754.59
2023-05-13T01:23:53.529Z,98748.91
2023-05-13T01:26:22.400Z,98746.31
2023-05-13T01:28:51.515Z,98749.50
2023-05-13T01:31:20.841Z,98749.34
2023-05-13T01:33:50.329Z,98748.88
2023-05-13T01:36:18.993Z,98757.81
2023-05-13T01:38:49.752Z,98754.78
2023-05-13T01:41:19.632Z,98754.50
2023-05-13T01:43:47.541Z,98752.16
2023-05-13T01:46:15.316Z,98748.47
2023-05-13T01:48:43.112Z,98755.81
2023-05-13T01:51:11.236Z,98756.91
2023-05-13T01:53:39.028Z,98752.94
2023-05-13T01:56:09.978Z,98750.34
2023-05-13T01:58:38.043Z,98752.78
2023-05-13T02:01:05.773Z,98750.09
2023-05-13T02:03:33.722Z,98758.00
2023-05-13T02:06:01.590Z,98756.47
2023-05-13T02:08:32.353Z,98756.47
2023-05-13T02:11:01.977Z,98748.91
2023-05-13T02:13:31.859Z,98754.63
2023-05-13T02:15:59.723Z,98757.31
2023-05-13T02:18:27.759Z,98755.34
2023-05-13T02:20:56.345Z,98755.91
2023-05-13T02:23:24.206Z,98760.75
2023-05-13T02:25:51.972Z,98758.59
2023-05-13T02:28:19.703Z,98753.59
2023-05-13T02:30:48.981Z,98759.72
2023-05-13T02:33:16.793Z,98757.81
2023-05-13T02:35:44.550Z,98762.25
2023-05-13T02:38:12.356Z,98752.84
2023-05-13T02:40:40.052Z,98748.34
2023-05-13T02:43:08.118Z,98760.53
2023-05-13T02:45:50.657Z,98753.03
2023-05-13T02:48:18.530Z,98760.41
2023-05-13T02:50:46.291Z,98753.94
2023-05-13T02:53:14.210Z,98757.22
2023-05-13T02:55:47.662Z,98751.97
2023-05-13T02:58:15.498Z,98759.38
2023-05-13T03:00:43.880Z,98760.53
2023-05-13T03:03:13.110Z,98757.84
2023-05-13T03:05:40.991Z,98761.00
2023-05-13T03:08:08.802Z,98760.47
2023-05-13T03:10:36.614Z,98757.94
2023-05-13T03:13:04.400Z,98758.16
2023-05-13T03:15:32.188Z,98758.72
2023-05-13T03:17:59.989Z,98755.72
2023-05-13T03:20:29.168Z,98764.25
2023-05-13T03:22:57.000Z,98768.13
2023-05-13T03:25:24.762Z,98771.44
2023-05-13T03:27:58.009Z,98771.88
2023-05-13T03:30:28.715Z,98767.56
2023-05-13T03:33:16.082Z,98768.75
2023-05-13T03:35:45.581Z,98772.13
2023-05-13T03:38:13.427Z,98769.22
2023-05-13T03:40:45.540Z,98766.06
2023-05-13T03:43:15.912Z,98773.41
2023-05-13T03:45:48.546Z,98771.19
2023-05-13T03:48:19.567Z,98769.13
2023-05-13T03:50:48.790Z,98774.94
2023-05-13T03:53:18.290Z,98772.22
2023-05-13T03:55:46.958Z,98777.13
2023-05-13T03:58:16.429Z,98769.22
2023-05-13T04:00:46.613Z,98781.81
2023-05-13T04:03:16.090Z,98777.50
2023-05-13T04:05:44.332Z,98788.25
2023-05-13T04:08:14.753Z,98783.75
2023-05-13T04:10:44.132Z,98787.28
2023-05-13T04:13:12.263Z,98794.84
2023-05-13T04:15:40.195Z,98791.75
2023-05-13T04:18:08.053Z,98792.66
2023-05-13T04:20:38.352Z,98799.47
2023-05-13T04:23:06.175Z,98804.41
2023-05-13T04:25:36.404Z,98801.69
2023-05-13T04:28:04.373Z,98808.25
2023-05-13T04:30:36.299Z,98804.72
2023-05-13T04:33:04.635Z,98799.16
2023-05-13T04:35:33.530Z,98800.97
2023-05-13T04:38:03.823Z,98809.72
2023-05-13T04:40:31.722Z,98803.34
2023-05-13T04:43:05.763Z,98811.06
2023-05-13T04:45:38.752Z,98808.19
2023-05-13T04:48:09.692Z,98810.47
2023-05-13T04:50:37.702Z,98817.09
2023-05-13T04:53:06.023Z,98809.91
2023-05-13T04:55:34.958Z,98813.13
2023-05-13T04:58:02.734Z,98818.00
2023-05-13T05:00:32.020Z,98815.25
2023-05-13T05:02:59.796Z,98815.31
2023-05-13T05:05:27.931Z,98814.72
2023-05-13T05:08:19.182Z,98838.03
2023-05-13T05:10:48.727Z,98833.66
2023-05-13T05:13:17.114Z,98834.75
2023-05-13T05:15:46.755Z,98836.56
2023-05-13T05:18:15.783Z,98842.34
2023-05-13T05:20:48.071Z,98839.41
2023-05-13T05:23:20.561Z,98843.47
2023-05-13T05:25:55.218Z,98849.69
2023-05-13T05:28:28.626Z,98839.72
2023-05-13T05:30:58.774Z,98835.78
2023-05-13T05:33:28.889Z,98840.38
2023-05-13T05:35:56.547Z,98850.00
2023-05-13T05:38:26.043Z,98852.94
2023-05-13T05:40:56.393Z,98859.09
2023-05-13T05:43:24.105Z,98864.97
2023-05-13T05:45:53.418Z,98858.53
2023-05-13T05:48:23.328Z,98848.22
2023-05-13T05:50:51.341Z,98846.91
2023-05-13T05:53:27.303Z,98852.63
2023-05-13T05:55:55.272Z,98852.16
2023-05-13T05:58:23.402Z,98859.13
2023-05-13T06:00:52.164Z,98856.28
2023-05-13T06:03:20.178Z,98856.56
2023-05-13T06:05:49.688Z,98865.41
2023-05-13T06:08:20.489Z,98863.50
2023-05-13T06:10:48.254Z,98875.47
2023-05-13T06:13:16.431Z,98872.81
2023-05-13T06:15:44.250Z,98869.53
2023-05-13T06:18:12.791Z,98874.63
2023-05-13T06:20:40.911Z,98869.56
2023-05-13T06:23:11.444Z,98874.53
2023-05-13T06:25:39.212Z,98859.19
2023-05-13T06:28:08.594Z,98878.72
2023-05-13T06:30:36.894Z,98868.25
2023-05-13T06:33:04.948Z,98863.56
2023-05-13T06:35:32.715Z,98872.88
2023-05-13T06:38:03.637Z,98866.31
2023-05-13T06:40:33.153Z,98863.25
2023-05-13T06:43:02.840Z,98867.16
2023-05-13T06:45:32.652Z,98871.41
2023-05-13T06:48:00.793Z,98871.72
2023-05-13T06:50:28.611Z,98875.38
2023-05-13T06:52:56.371Z,98873.44
2023-05-13T06:55:24.071Z,98879.91
2023-05-13T06:57:53.156Z,98883.38
2023-05-13T07:00:24.237Z,98879.28
2023-05-13T07:02:52.192Z,98879.09
2023-05-13T07:05:20.032Z,98887.16
2023-05-13T07:07:47.870Z,98880.00
2023-05-13T07:10:15.635Z,98886.94
2023-05-13T07:12:43.392Z,98884.88
2023-05-13T07:15:12.842Z,98884.38
2023-05-13T07:17:41.120Z,98881.31
2023-05-13T07:20:09.943Z,98889.00
2023-05-13T07:22:37.788Z,98882.31
2023-05-13T07:25:06.290Z,98890.25
2023-05-13T07:27:34.150Z,98896.16
2023-05-13T07:30:02.551Z,98898.19
2023-05-13T07:32:31.841Z,98898.91
2023-05-13T07:34:59.559Z,98890.72
2023-05-13T07:37:27.320Z,98897.97
2023-05-13T07:39:55.068Z,98892.03
2023-05-13T07:42:22.795Z,98893.50
2023-05-13T07:44:50.501Z,98889.75
2023-05-13T07:47:18.744Z,98879.31
2023-05-13T07:49:47.921Z,98879.22
2023-05-13T07:52:15.757Z,98886.75
2023-05-13T07:54:43.529Z,98886.03
2023-05-13T07:57:11.254Z,98885.13
2023-05-13T07:59:39.014Z,98885.03
2023-05-13T08:02:06.900Z,98894.47
2023-05-13T08:04:34.729Z,98886.31
2023-05-13T08:07:03.900Z,98880.50
2023-05-13T08:09:31.709Z,98879.75
2023-05-13T08:11:59.540Z,98886.56
2023-05-13T08:14:27.345Z,98885.25
2023-05-13T08:16:55.261Z,98898.06
2023-05-13T08:19:23.079Z,98899.34
2023-05-13T08:21:50.931Z,98892.06
2023-05-13T08:24:20.008Z,98892.03
2023-05-13T08:26:48.011Z,98890.50
2023-05-13T08:29:15.814Z,98892.84
2023-05-13T08:31:43.754Z,98887.34
2023-05-13T08:34:11.882Z,98894.56
2023-05-13T08:36:39.658Z,98891.88
2023-05-13T08:39:07.926Z,98887.53
2023-05-13T08:41:38.589Z,98892.91
2023-05-13T08:44:10.296Z,98894.50
2023-05-13T08:46:39.449Z,98899.81
2023-05-13T08:49:09.561Z,98900.13
2023-05-13T08:51:37.325Z,98900.13
2023-05-13T08:54:06.135Z,98906.94
2023-05-13T08:56:35.476Z,98907.72
2023-05-13T08:59:04.621Z,98902.47
2023-05-13T09:01:33.142Z,98914.84
2023-05-13T09:04:05.391Z,98905.63
2023-05-13T09:06:33.759Z,98901.66
2023-05-13T09:09:02.914Z,98910.13
2023-05-13T09:11:30.706Z,98910.56
2023-05-13T09:13:59.573Z,98906.63
2023-05-13T09:16:30.534Z,98895.44
2023-05-13T09:18:59.892Z,98899.84
2023-05-13T09:21:30.398Z,98903.03
2023-05-13T09:24:08.900Z,98901.88
2023-05-13T09:26:42.953Z,98902.59
2023-05-13T09:29:22.082Z,98894.69
2023-05-13T09:31:52.907Z,98899.44
2023-05-13T09:34:27.117Z,98895.84
2023-05-13T09:36:56.506Z,98901.84
2023-05-13T09:39:24.267Z,98901.03
2023-05-13T09:41:52.072Z,98893.88
2023-05-13T09:44:19.876Z,98897.00
2023-05-13T09:46:47.802Z,98894.53
2023-05-13T09:49:17.089Z,98900.13
2023-05-13T09:51:45.842Z,98906.03
2023-05-13T09:54:13.522Z,98904.16
2023-05-13T09:56:41.309Z,98908.16
2023-05-13T09:59:09.104Z,98904.56
2023-05-13T10:01:40.554Z,98909.63
2023-05-13T10:04:08.883Z,98906.41
2023-05-13T10:06:38.759Z,98913.53
2023-05-13T10:09:10.284Z,98909.09
2023-05-13T10:11:38.358Z,98913.94
2023-05-13T10:14:07.490Z,98914.22
2023-05-13T10:16:35.364Z,98907.44
2023-05-13T10:19:04.121Z,98914.13
2023-05-13T10:21:32.569Z,98912.63
2023-05-13T10:24:01.938Z,98905.56
2023-05-13T10:26:32.674Z,98916.84
2023-05-13T10:29:00.880Z,98915.97
2023-05-13T10:31:31.316Z,98913.66
2023-05-13T10:33:59.833Z,98914.19
2023-05-13T10:36:46.018Z,98911.53
2023-05-13T10:39:39.963Z,98910.47
2023-05-13T10:42:36.320Z,98906.22
2023-05-13T10:45:07.356Z,98907.91
2023-05-13T10:47:36.137Z,98903.34
2023-05-13T10:50:07.364Z,98911.91
2023-05-13T10:52:47.334Z,98905.03
2023-05-13T10:55:21.262Z,98905.97
2023-05-13T10:58:11.897Z,98904.09
2023-05-13T11:00:41.576Z,98905.81
2023-05-13T11:03:29.282Z,98908.19
2023-05-13T11:06:05.175Z,98905.53
2023-05-13T11:08:39.939Z,98907.44
2023-05-13T11:11:26.350Z,98900.69
2023-05-13T11:13:55.338Z,98906.94
2023-05-13T11:16:23.868Z,98897.63
2023-05-13T11:18:52.708Z,98890.63
2023-05-13T11:21:31.634Z,98897.50
2023-05-13T11:24:03.854Z,98900.16
2023-05-13T11:26:45.795Z,98894.94
2023-05-13T11:29:14.166Z,98894.81
2023-05-13T11:31:48.671Z,98898.44
2023-05-13T11:34:17.802Z,98895.66
2023-05-13T11:36:48.473Z,98888.69
2023-05-13T11:39:18.320Z,98889.66
2023-05-13T11:41:48.626Z,98894.34
2023-05-13T11:44:17.630Z,98900.91
2023-05-13T11:46:53.679Z,98896.66
2023-05-13T11:49:35.013Z,98897.03
2023-05-13T11:52:03.849Z,98893.84
2023-05-13T11:54:31.662Z,98900.59
2023-05-13T11:57:00.795Z,98901.47
2023-05-13T11:59:35.825Z,98902.09
2023-05-13T12:02:09.701Z,98895.50
2023-05-13T12:04:37.534Z,98895.94
2023-05-13T12:07:05.687Z,98892.47
2023-05-13T12:09:35.437Z,98891.56
2023-05-13T12:12:05.403Z,98890.63
2023-05-13T12:14:33.580Z,98899.19
2023-05-13T12:17:01.901Z,98889.03
2023-05-13T12:19:29.831Z,98889.28
2023-05-13T12:21:57.571Z,98891.44
2023-05-13T12:24:25.354Z,98898.44
2023-05-13T12:26:54.562Z,98896.25
2023-05-13T12:29:23.681Z,98904.72
2023-05-13T12:32:05.531Z,98900.81
2023-05-13T12:34:33.514Z,98902.56
2023-05-13T12:37:11.797Z,98898.13
2023-05-13T12:39:39.857Z,98890.78
2023-05-13T12:42:14.596Z,98886.97
2023-05-13T12:44:45.355Z,98889.56
2023-05-13T12:47:15.553Z,98885.97
2023-05-13T12:49:53.140Z,98888.13
2023-05-13T12:52:21.176Z,98885.22
2023-05-13T12:54:49.150Z,98876.00
2023-05-13T12:57:18.208Z,98882.31
2023-05-13T12:59:47.499Z,98882.19
2023-05-13T13:02:15.380Z,98894.38
2023-05-13T13:04:43.065Z,98892.53
2023-05-13T13:07:14.346Z,98898.09
2023-05-13T13:09:42.071Z,98893.06
2023-05-13T13:12:10.678Z,98897.75
2023-05-13T13:14:38.444Z,98890.91
2023-05-13T13:17:07.994Z,98892.06
2023-05-13T13:19:35.723Z,98892.03
2023-05-13T13:22:04.073Z,98889.41
2023-05-13T13:24:32.054Z,98891.28
2023-05-13T13:26:59.835Z,98887.66
2023-05-13T13:29:27.628Z,98891.25
2023-05-13T13:31:55.461Z,98895.16
2023-05-13T13:34:24.657Z,98884.75
2023-05-13T13:36:52.430Z,98887.00
2023-05-13T13:39:20.231Z,98879.16
2023-05-13T13:41:48.206Z,98872.00
2023-05-13T13:44:16.073Z,98865.78
2023-05-13T13:46:43.974Z,98867.34
2023-05-13T13:49:22.761Z,98852.88
2023-05-13T13:51:53.315Z,98850.81
2023-05-13T13:54:21.454Z,98848.69
2023-05-13T13:56:49.289Z,98846.91
2023-05-13T13:59:19.096Z,98846.38
2023-05-13T14:01:46.969Z,98851.66
2023-05-13T14:04:16.183Z,98852.03
2023-05-13T14:06:46.816Z,98843.94
2023-05-13T14:09:16.457Z,98846.97
2023-05-13T14:11:44.211Z,98851.00
2023-05-13T14:14:12.026Z,98865.41
2023-05-13T14:16:39.804Z,98858.84
2023-05-13T14:19:07.582Z,98855.47
2023-05-13T14:21:36.549Z,98854.03
2023-05-13T14:24:04.289Z,98854.94
2023-05-13T14:26:33.411Z,98853.28
2023-05-13T14:29:01.213Z,98851.03
2023-05-13T14:31:28.953Z,98853.59
2023-05-13T14:33:56.793Z,98845.78
2023-05-13T14:36:26.580Z,98845.06
2023-05-13T14:38:54.467Z,98845.75
2023-05-13T14:41:23.084Z,98846.09
2023-05-13T14:43:52.923Z,98835.94
2023-05-13T14:46:20.852Z,98835.06
2023-05-13T14:48:48.664Z,98837.63
2023-05-13T14:51:16.444Z,98824.53
2023-05-13T14:53:44.333Z,98823.16
2023-05-13T14:56:12.472Z,98821.47
2023-05-13T14:58:41.896Z,98822.97
2023-05-13T15:01:11.482Z,98818.00
2023-05-13T15:03:39.304Z,98805.22
2023-05-13T15:06:07.738Z,98807.34
2023-05-13T15:08:37.005Z,98806.63
2023-05-13T15:11:05.221Z,98797.03
2023-05-13T15:13:35.321Z,98799.47
2023-05-13T15:16:03.542Z,98805.16
2023-05-13T15:18:33.836Z,98812.03
2023-05-13T15:21:01.659Z,98808.25
2023-05-13T15:23:29.438Z,98813.09
2023-05-13T15:25:59.372Z,98804.28
2023-05-13T15:28:29.098Z,98809.66
2023-05-13T15:30:57.023Z,98805.03
2023-05-13T15:33:26.627Z,98808.66
2023-05-13T15:35:55.680Z,98803.88
2023-05-13T15:38:23.590Z,98811.44
2023-05-13T15:40:51.325Z,98808.88
2023-05-13T15:43:19.106Z,98810.53
2023-05-13T15:45:46.924Z,98806.03
2023-05-13T15:48:14.705Z,98813.25
2023-05-13T15:50:42.418Z,98806.44
2023-05-13T15:53:11.650Z,98808.88
2023-05-13T15:55:39.664Z,98818.53
2023-05-13T15:58:07.672Z,98806.22
2023-05-13T16:00:35.474Z,98804.91
2023-05-13T16:03:03.279Z,98800.38
2023-05-13T16:05:31.121Z,98794.91
2023-05-13T16:07:58.898Z,98797.44
2023-05-13T16:10:28.112Z,98786.06
2023-05-13T16:12:55.832Z,98788.00
2023-05-13T16:15:23.730Z,98785.94
2023-05-13T16:17:51.553Z,98794.38
2023-05-13T16:20:19.522Z,98787.84
2023-05-13T16:22:47.379Z,98799.00
2023-05-13T16:25:15.117Z,98792.19
2023-05-13T16:27:44.350Z,98803.19
2023-05-13T16:30:12.715Z,98802.22
2023-05-13T16:32:40.716Z,98805.72
2023-05-13T16:35:11.519Z,98797.69
2023-05-13T16:37:39.305Z,98800.97
2023-05-13T16:40:08.381Z,98798.50
2023-05-13T16:42:36.156Z,98791.56
2023-05-13T16:45:06.077Z,98794.19
2023-05-13T16:47:33.945Z,98786.94
2023-05-13T16:50:01.700Z,98782.19
2023-05-13T16:52:31.291Z,98794.97
2023-05-13T16:54:59.280Z,98795.28
2023-05-13T16:57:27.213Z,98800.09
2023-05-13T16:59:54.942Z,98787.75
2023-05-13T17:02:24.080Z,98791.06
2023-05-13T17:04:52.263Z,98789.69
2023-05-13T17:07:20.216Z,98797.13
2023-05-13T17:09:47.945Z,98792.28
2023-05-13T17:12:16.628Z,98790.72
2023-05-13T17:14:44.741Z,98789.56
2023-05-13T17:17:12.643Z,98789.91
2023-05-13T17:19:43.100Z,98782.44
2023-05-13T17:22:10.887Z,98784.72
2023-05-13T17:24:39.838Z,98784.06
2023-05-13T17:27:07.704Z,98796.69
2023-05-13T17:29:38.464Z,98785.66
2023-05-13T17:32:07.952Z,98789.59
2023-05-13T17:34:35.721Z,98788.97
2023-05-13T17:37:04.840Z,98795.22
2023-05-13T17:39:32.596Z,98795.91
2023-05-13T17:42:00.331Z,98796.28
2023-05-13T17:44:28.051Z,98795.16
2023-05-13T17:46:55.847Z,98800.00
2023-05-13T17:49:23.622Z,98800.84
2023-05-13T17:51:51.415Z,98790.16
2023-05-13T17:54:20.500Z,98794.56
2023-05-13T17:56:48.410Z,98792.13
2023-05-13T17:59:16.171Z,98786.06
2023-05-13T18:01:44.062Z,98796.69
2023-05-13T18:04:11.924Z,98801.78
2023-05-13T18:06:39.671Z,98789.06
2023-05-13T18:09:07.453Z,98790.72
2023-05-13T18:11:36.670Z,98795.75
2023-05-13T18:14:04.436Z,98800.66
2023-05-13T18:16:32.229Z,98800.72
2023-05-13T18:19:00.108Z,98798.72
2023-05-13T18:21:28.909Z,98805.09
2023-05-13T18:23:56.827Z,98800.25
2023-05-13T18:26:24.732Z,98791.91
2023-05-13T18:28:53.859Z,98799.19
2023-05-13T18:31:21.702Z,98794.28
2023-05-13T18:33:49.470Z,98790.53
2023-05-13T18:36:17.847Z,98791.06
2023-05-13T18:38:47.922Z,98798.97
2023-05-13T18:41:15.782Z,98800.78
2023-05-13T18:43:43.563Z,98802.94
2023-05-13T18:46:12.818Z,98796.59
2023-05-13T18:48:40.641Z,98794.19
2023-05-13T18:51:08.569Z,98795.38
2023-05-13T18:53:36.358Z,98806.81
2023-05-13T18:56:04.301Z,98811.22
2023-05-13T18:58:37.707Z,98810.81
2023-05-13T19:01:06.580Z,98808.88
2023-05-13T19:03:36.303Z,98810.81
2023-05-13T19:06:04.333Z,98820.00
2023-05-13T19:08:32.101Z,98819.16
2023-05-13T19:11:00.047Z,98823.91
2023-05-13T19:13:36.214Z,98833.41
2023-05-13T19:16:14.259Z,98823.09
2023-05-13T19:18:43.731Z,98832.28
2023-05-13T19:21:11.548Z,98832.66
2023-05-13T19:23:39.405Z,98832.66
2023-05-13T19:26:07.238Z,98838.53
2023-05-13T19:28:35.855Z,98837.25
2023-05-13T19:31:04.321Z,98848.47
2023-05-13T19:33:32.237Z,98841.63
2023-05-13T19:36:01.337Z,98840.41
2023-05-13T19:38:29.244Z,98848.47
2023-05-13T19:40:56.995Z,98846.22
2023-05-13T19:43:25.170Z,98850.88
2023-05-13T19:45:55.498Z,98848.78
2023-05-13T19:48:23.269Z,98847.94
2023-05-13T19:50:53.464Z,98855.47
2023-05-13T19:53:22.660Z,98845.91
2023-05-13T19:55:50.555Z,98842.34
2023-05-13T19:58:18.389Z,98835.75
2023-05-13T20:00:46.390Z,98845.13
2023-05-13T20:03:14.630Z,98848.47
2023-05-13T20:05:42.456Z,98842.97
2023-05-13T20:08:10.343Z,98843.31
2023-05-13T20:10:40.366Z,98853.56
2023-05-13T20:13:10.592Z,98855.19
2023-05-13T20:15:40.589Z,98856.34
2023-05-13T20:18:08.403Z,98853.91
2023-05-13T20:20:36.159Z,98852.69
2023-05-13T20:23:03.952Z,98855.41
2023-05-13T20:25:31.767Z,98859.00
2023-05-13T20:28:00.849Z,98860.63
2023-05-13T20:30:28.837Z,98858.31
2023-05-13T20:32:56.545Z,98859.50
2023-05-13T20:35:24.570Z,98860.34
2023-05-13T20:37:52.270Z,98852.41
2023-05-13T20:40:20.093Z,98849.25
2023-05-13T20:42:47.903Z,98846.84
2023-05-13T20:45:17.080Z,98841.69
2023-05-13T20:47:44.824Z,98847.63
2023-05-13T20:50:13.404Z,98845.63
2023-05-13T20:52:41.150Z,98841.25
2023-05-13T20:55:09.917Z,98846.16
2023-05-13T20:57:37.737Z,98847.81
2023-05-13T21:00:06.348Z,98845.81
2023-05-13T21:02:36.617Z,98852.59
2023-05-13T21:05:04.675Z,98836.72
2023-05-13T21:07:32.362Z,98843.06
2023-05-13T21:10:00.189Z,98840.97
2023-05-13T21:12:28.236Z,98847.19
2023-05-13T21:14:55.992Z,98850.94
2023-05-13T21:17:24.514Z,98848.13
2023-05-13T21:19:54.817Z,98846.56
2023-05-13T21:22:22.569Z,98841.09
2023-05-13T21:24:50.488Z,98839.59
2023-05-13T21:27:18.184Z,98842.13
2023-05-13T21:29:45.849Z,98830.63
2023-05-13T21:32:13.623Z,98830.94
2023-05-13T21:34:41.309Z,98839.13
2023-05-13T21:37:10.341Z,98836.78
2023-05-13T21:39:38.233Z,98831.09
2023-05-13T21:42:06.704Z,98838.00
2023-05-13T21:44:34.516Z,98833.47
2023-05-13T21:47:02.310Z,98830.59
2023-05-13T21:49:30.063Z,98840.19
2023-05-13T21:51:57.851Z,98840.31
2023-05-13T21:54:26.917Z,98831.63
2023-05-13T21:56:54.665Z,98841.09
2023-05-13T21:59:22.359Z,98837.72
2023-05-13T22:01:50.162Z,98826.47
2023-05-13T22:04:20.903Z,98828.56
2023-05-13T22:06:48.632Z,98833.19
2023-05-13T22:09:16.578Z,98832.81
2023-05-13T22:11:45.722Z,98824.91
2023-05-13T22:14:13.951Z,98830.72
2023-05-13T22:16:41.829Z,98829.16
2023-05-13T22:19:09.673Z,98821.97
2023-05-13T22:21:37.655Z,98831.28
2023-05-13T22:24:06.363Z,98831.03
2023-05-13T22:26:34.799Z,98823.09
2023-05-13T22:29:03.994Z,98821.00
2023-05-13T22:31:31.890Z,98824.94
2023-05-13T22:33:59.698Z,98822.06
2023-05-13T22:36:27.470Z,98822.16
2023-05-13T22:38:55.121Z,98821.59
2023-05-13T22:41:23.750Z,98812.97
2023-05-13T22:43:51.611Z,98802.34
2023-05-13T22:46:20.877Z,98815.41
2023-05-13T22:48:48.694Z,98812.69
2023-05-13T22:51:16.386Z,98815.69
2023-05-13T22:53:44.084Z,98808.38
2023-05-13T22:56:11.803Z,98803.47
2023-05-13T22:58:39.583Z,98792.28
2023-05-13T23:01:09.545Z,98796.78
2023-05-13T23:03:38.688Z,98797.34
2023-05-13T23:06:06.773Z,98795.34
2023-05-13T23:08:34.827Z,98800.06
2023-05-13T23:11:02.655Z,98799.22
2023-05-13T23:13:30.421Z,98794.41
2023-05-13T23:15:58.145Z,98789.28
2023-05-13T23:18:25.979Z,98790.53
2023-05-13T23:20:56.828Z,98795.75
2023-05-13T23:23:24.838Z,98800.16
2023-05-13T23:25:52.662Z,98791.44
2023-05-13T23:28:20.487Z,98778.72
2023-05-13T23:30:48.300Z,98782.66
2023-05-13T23:33:16.012Z,98780.25
2023-05-13T23:35:43.710Z,98783.06
2023-05-13T23:38:12.728Z,98782.91
2023-05-13T23:40:40.456Z,98780.38
2023-05-13T23:43:08.230Z,98778.38
2023-05-13T23:45:36.072Z,98774.56
2023-05-13T23:48:05.103Z,98778.09
2023-05-13T23:50:33.360Z,98775.41
2023-05-13T23:53:01.199Z,98764.03
2023-05-13T23:55:30.425Z,98766.56
2023-05-13T23:57:58.250Z,98761.03
